createdAt,value
2018-08-16T00:02:11.599Z,15.70
2018-08-16T00:04:39.233Z,15.70
2018-08-16T00:07:06.754Z,15.70
2018-08-16T00:09:34.324Z,15.70
2018-08-16T00:12:02.433Z,15.60
2018-08-16T00:14:30.312Z,15.60
2018-08-16T00:16:58.375Z,15.60
2018-08-16T00:19:25.903Z,15.60
2018-08-16T00:21:53.568Z,15.60
2018-08-16T00:24:21.121Z,15.50
2018-08-16T00:26:48.607Z,15.50
2018-08-16T00:29:16.352Z,15.60
2018-08-16T00:31:44.898Z,15.50
2018-08-16T00:34:13.101Z,15.50
2018-08-16T00:36:40.610Z,15.60
2018-08-16T00:39:08.983Z,15.50
2018-08-16T00:41:36.499Z,15.50
2018-08-16T00:44:04.276Z,15.50
2018-08-16T00:46:31.891Z,15.50
2018-08-16T00:48:59.951Z,15.50
2018-08-16T00:51:27.807Z,15.50
2018-08-16T00:53:55.295Z,15.50
2018-08-16T00:56:22.837Z,15.60
2018-08-16T00:58:50.347Z,15.50
2018-08-16T01:01:18.330Z,15.60
2018-08-16T01:03:46.799Z,15.60
2018-08-16T01:06:14.311Z,15.60
2018-08-16T01:08:41.831Z,15.60
2018-08-16T01:11:09.347Z,15.60
2018-08-16T01:13:36.913Z,15.50
2018-08-16T01:16:05.033Z,15.50
2018-08-16T01:18:33.103Z,15.60
2018-08-16T01:21:00.637Z,15.50
2018-08-16T01:23:28.208Z,15.60
2018-08-16T01:25:55.708Z,15.60
2018-08-16T01:28:23.319Z,15.60
2018-08-16T01:30:51.753Z,15.60
2018-08-16T01:33:19.367Z,15.60
2018-08-16T01:35:46.895Z,15.60
2018-08-16T01:38:14.441Z,15.60
2018-08-16T01:40:41.947Z,15.60
2018-08-16T01:43:09.705Z,15.60
2018-08-16T01:45:37.249Z,15.50
2018-08-16T01:48:05.315Z,15.50
2018-08-16T01:50:32.822Z,15.50
2018-08-16T01:53:00.611Z,15.50
2018-08-16T01:55:28.175Z,15.50
2018-08-16T01:57:56.391Z,15.50
2018-08-16T02:00:24.583Z,15.50
2018-08-16T02:02:52.143Z,15.50
2018-08-16T02:05:19.855Z,15.60
2018-08-16T02:07:47.375Z,15.60
2018-08-16T02:10:14.883Z,15.60
2018-08-16T02:12:42.463Z,15.60
2018-08-16T02:15:11.618Z,15.60
2018-08-16T02:17:40.080Z,15.60
2018-08-16T02:20:09.535Z,15.60
2018-08-16T02:22:37.074Z,15.60
2018-08-16T02:25:04.659Z,15.60
2018-08-16T02:27:32.200Z,15.50
2018-08-16T02:29:59.784Z,15.50
2018-08-16T02:32:27.312Z,15.50
2018-08-16T02:34:54.802Z,15.50
2018-08-16T02:37:22.311Z,15.50
2018-08-16T02:39:50.215Z,15.60
2018-08-16T02:42:18.202Z,15.50
2018-08-16T02:44:46.674Z,15.50
2018-08-16T02:47:14.211Z,15.50
2018-08-16T02:49:41.746Z,15.50
2018-08-16T02:52:09.543Z,15.60
2018-08-16T02:54:37.063Z,15.50
2018-08-16T02:57:05.263Z,15.50
2018-08-16T02:59:32.747Z,15.50
2018-08-16T03:02:00.690Z,15.50
2018-08-16T03:04:28.182Z,15.40
2018-08-16T03:06:55.671Z,15.50
2018-08-16T03:09:23.202Z,15.50
2018-08-16T03:11:51.154Z,15.50
2018-08-16T03:14:19.402Z,15.40
2018-08-16T03:16:47.278Z,15.50
2018-08-16T03:19:14.767Z,15.50
2018-08-16T03:21:42.263Z,15.50
2018-08-16T03:24:09.856Z,15.40
2018-08-16T03:26:37.354Z,15.40
2018-08-16T03:29:05.115Z,15.40
2018-08-16T03:31:32.911Z,15.40
2018-08-16T03:34:00.428Z,15.40
2018-08-16T03:36:27.943Z,15.40
2018-08-16T03:38:55.522Z,15.30
2018-08-16T03:41:23.377Z,15.20
2018-08-16T03:43:51.444Z,15.20
2018-08-16T03:46:18.944Z,15.20
2018-08-16T03:48:46.451Z,15.30
2018-08-16T03:51:14.382Z,15.20
2018-08-16T03:53:42.264Z,15.10
2018-08-16T03:56:09.836Z,15.10
2018-08-16T03:58:37.801Z,15.10
2018-08-16T04:01:05.672Z,15.10
2018-08-16T04:03:33.207Z,15.10
2018-08-16T04:06:00.699Z,15.10
2018-08-16T04:08:28.199Z,15.10
2018-08-16T04:10:55.748Z,15.10
2018-08-16T04:13:23.351Z,15.10
2018-08-16T04:15:51.399Z,15.20
2018-08-16T04:18:18.988Z,15.20
2018-08-16T04:20:46.479Z,15.20
2018-08-16T04:23:14.015Z,15.20
2018-08-16T04:25:42.191Z,15.20
2018-08-16T04:28:09.775Z,15.20
2018-08-16T04:30:37.282Z,15.20
2018-08-16T04:33:04.768Z,15.20
2018-08-16T04:35:32.340Z,15.20
2018-08-16T04:38:00.063Z,15.20
2018-08-16T04:40:28.066Z,15.30
2018-08-16T04:42:56.916Z,15.30
2018-08-16T04:45:24.503Z,15.30
2018-08-16T04:47:52.032Z,15.40
2018-08-16T04:50:19.862Z,15.40
2018-08-16T04:52:47.807Z,15.40
2018-08-16T04:55:15.369Z,15.50
2018-08-16T04:57:43.434Z,15.50
2018-08-16T05:00:12.321Z,15.50
2018-08-16T05:02:40.277Z,15.60
2018-08-16T05:05:08.748Z,15.60
2018-08-16T05:07:36.496Z,15.70
2018-08-16T05:10:05.297Z,15.70
2018-08-16T05:12:32.813Z,15.80
2018-08-16T05:15:00.728Z,15.80
2018-08-16T05:17:28.281Z,15.90
2018-08-16T05:19:55.861Z,15.90
2018-08-16T05:22:23.416Z,16.00
2018-08-16T05:24:51.194Z,16.10
2018-08-16T05:27:18.785Z,16.10
2018-08-16T05:29:46.304Z,16.20
2018-08-16T05:32:13.861Z,16.20
2018-08-16T05:34:41.356Z,16.30
2018-08-16T05:37:09.587Z,16.30
2018-08-16T05:39:37.123Z,16.40
2018-08-16T05:42:04.668Z,16.50
2018-08-16T05:44:32.300Z,16.60
2018-08-16T05:46:59.844Z,16.60
2018-08-16T05:49:27.731Z,16.60
2018-08-16T05:51:55.667Z,16.70
2018-08-16T05:54:23.192Z,16.70
2018-08-16T05:56:50.704Z,16.80
2018-08-16T05:59:18.329Z,16.90
2018-08-16T06:01:46.274Z,17.00
2018-08-16T06:04:13.812Z,17.00
2018-08-16T06:06:41.340Z,17.10
2018-08-16T06:09:10.331Z,17.20
2018-08-16T06:11:37.976Z,17.20
2018-08-16T06:14:08.273Z,17.30
2018-08-16T06:16:37.259Z,17.40
2018-08-16T06:19:05.393Z,17.50
2018-08-16T06:21:32.944Z,17.60
2018-08-16T06:24:00.510Z,17.70
2018-08-16T06:26:28.021Z,17.70
2018-08-16T06:28:55.956Z,17.70
2018-08-16T06:31:23.548Z,17.80
2018-08-16T06:33:51.172Z,17.90
2018-08-16T06:36:19.509Z,18.00
2018-08-16T06:38:47.058Z,18.10
2018-08-16T06:41:14.618Z,18.10
2018-08-16T06:43:42.163Z,18.20
2018-08-16T06:46:10.401Z,18.30
2018-08-16T06:48:37.927Z,18.40
2018-08-16T06:51:05.750Z,18.50
2018-08-16T06:53:33.256Z,18.50
2018-08-16T06:56:00.826Z,18.60
2018-08-16T06:58:28.383Z,18.70
2018-08-16T07:00:57.018Z,18.70
2018-08-16T07:03:24.511Z,18.90
2018-08-16T07:05:52.112Z,18.90
2018-08-16T07:08:19.725Z,19.00
2018-08-16T07:10:47.242Z,19.20
2018-08-16T07:13:15.473Z,19.30
2018-08-16T07:15:43.402Z,19.30
2018-08-16T07:18:10.946Z,19.40
2018-08-16T07:20:39.023Z,19.50
2018-08-16T07:23:06.823Z,19.50
2018-08-16T07:25:34.326Z,19.60
2018-08-16T07:28:01.880Z,19.70
2018-08-16T07:30:29.383Z,19.80
2018-08-16T07:32:57.440Z,19.90
2018-08-16T07:35:25.507Z,20.00
2018-08-16T07:37:53.071Z,20.10
2018-08-16T07:40:20.700Z,20.10
2018-08-16T07:42:48.231Z,20.20
2018-08-16T07:45:16.306Z,20.30
2018-08-16T07:47:43.850Z,20.40
2018-08-16T07:50:11.463Z,20.50
2018-08-16T07:52:40.016Z,20.50
2018-08-16T07:55:08.079Z,20.60
2018-08-16T07:57:35.625Z,20.70
2018-08-16T08:00:04.160Z,20.90
2018-08-16T08:02:32.079Z,21.00
2018-08-16T08:04:59.607Z,21.00
2018-08-16T08:07:27.170Z,21.20
2018-08-16T08:09:55.427Z,21.30
2018-08-16T08:12:23.691Z,21.40
2018-08-16T08:14:51.895Z,21.40
2018-08-16T08:17:19.431Z,21.50
2018-08-16T08:19:46.952Z,21.50
2018-08-16T08:22:14.632Z,21.60
2018-08-16T08:24:42.227Z,21.60
2018-08-16T08:27:09.879Z,21.80
2018-08-16T08:29:37.426Z,21.90
2018-08-16T08:32:06.433Z,22.00
2018-08-16T08:34:34.519Z,22.00
2018-08-16T08:37:13.459Z,22.10
2018-08-16T08:39:41.002Z,22.20
2018-08-16T08:42:08.953Z,22.40
2018-08-16T08:44:36.543Z,22.50
2018-08-16T08:47:04.169Z,22.60
2018-08-16T08:49:31.715Z,22.60
2018-08-16T08:51:59.746Z,22.70
2018-08-16T08:54:54.720Z,22.80
2018-08-16T08:57:34.418Z,22.90
2018-08-16T09:00:01.976Z,22.90
2018-08-16T09:02:30.179Z,23.10
2018-08-16T09:04:57.763Z,23.10
2018-08-16T09:07:25.557Z,23.20
2018-08-16T09:11:08.983Z,23.30
2018-08-16T09:13:50.290Z,23.40
2018-08-16T09:16:19.617Z,23.50
2018-08-16T09:18:47.115Z,23.60
2018-08-16T09:21:15.083Z,23.70
2018-08-16T09:23:42.663Z,23.70
2018-08-16T09:26:15.847Z,23.90
2018-08-16T09:28:44.178Z,24.00
2018-08-16T09:31:23.981Z,24.00
2018-08-16T09:34:03.002Z,24.10
2018-08-16T09:36:30.592Z,24.30
2018-08-16T09:38:59.003Z,24.30
2018-08-16T09:41:26.847Z,24.40
2018-08-16T09:43:54.415Z,24.40
2018-08-16T09:47:10.319Z,24.50
2018-08-16T09:49:41.747Z,24.60
2018-08-16T09:52:10.737Z,24.70
2018-08-16T09:54:38.299Z,24.70
2018-08-16T09:57:07.128Z,24.70
2018-08-16T09:59:34.731Z,24.80
2018-08-16T10:02:03.556Z,24.80
2018-08-16T10:04:31.179Z,24.90
2018-08-16T10:06:59.057Z,24.90
2018-08-16T10:09:27.667Z,24.90
2018-08-16T10:11:56.119Z,24.90
2018-08-16T10:14:24.456Z,24.90
2018-08-16T10:16:53.396Z,25.10
2018-08-16T10:19:21.576Z,25.20
2018-08-16T10:21:49.131Z,25.10
2018-08-16T10:24:16.716Z,25.20
2018-08-16T10:26:44.760Z,25.30
2018-08-16T10:29:12.541Z,25.50
2018-08-16T10:31:40.952Z,25.60
2018-08-16T10:34:08.512Z,25.60
2018-08-16T10:36:36.515Z,25.70
2018-08-16T10:39:07.952Z,25.70
2018-08-16T10:41:35.611Z,25.80
2018-08-16T10:44:03.656Z,25.70
2018-08-16T10:46:31.769Z,25.70
2018-08-16T10:48:59.411Z,25.70
2018-08-16T10:51:27.944Z,25.70
2018-08-16T10:53:55.512Z,25.80
2018-08-16T10:56:23.048Z,25.90
2018-08-16T10:58:50.615Z,26.00
2018-08-16T11:01:18.866Z,26.10
2018-08-16T11:03:47.053Z,26.10
2018-08-16T11:06:14.650Z,26.00
2018-08-16T11:08:42.232Z,26.20
2018-08-16T11:11:09.810Z,26.20
2018-08-16T11:13:38.693Z,26.20
2018-08-16T11:16:06.663Z,26.30
2018-08-16T11:18:34.211Z,26.40
2018-08-16T11:21:01.738Z,26.40
2018-08-16T11:23:29.720Z,26.50
2018-08-16T11:25:57.316Z,26.60
2018-08-16T11:28:24.864Z,26.60
2018-08-16T11:30:52.418Z,26.60
2018-08-16T11:33:20.688Z,26.60
2018-08-16T11:35:48.210Z,26.70
2018-08-16T11:38:15.730Z,26.70
2018-08-16T11:40:43.865Z,26.80
2018-08-16T11:43:11.311Z,26.70
2018-08-16T11:45:38.891Z,26.90
2018-08-16T11:48:06.504Z,26.90
2018-08-16T11:50:33.992Z,27.00
2018-08-16T11:53:03.059Z,27.20
2018-08-16T11:55:31.259Z,27.30
2018-08-16T11:57:58.840Z,27.20
2018-08-16T12:00:26.416Z,27.30
2018-08-16T12:02:54.305Z,27.30
2018-08-16T12:05:21.816Z,27.40
2018-08-16T12:07:49.325Z,27.40
2018-08-16T12:10:16.843Z,27.50
2018-08-16T12:12:44.362Z,27.50
2018-08-16T12:15:12.833Z,27.60
2018-08-16T12:17:40.333Z,27.70
2018-08-16T12:20:08.976Z,27.80
2018-08-16T12:22:36.567Z,27.90
2018-08-16T12:25:04.898Z,27.70
2018-08-16T12:27:32.448Z,27.80
2018-08-16T12:29:59.979Z,27.80
2018-08-16T12:32:27.999Z,27.70
2018-08-16T12:34:55.595Z,27.70
2018-08-16T12:37:23.048Z,27.80
2018-08-16T12:39:50.915Z,28.00
2018-08-16T12:42:18.486Z,28.10
2018-08-16T12:44:45.951Z,28.10
2018-08-16T12:47:14.193Z,28.20
2018-08-16T12:49:41.707Z,28.30
2018-08-16T12:52:09.777Z,28.20
2018-08-16T12:54:37.984Z,28.30
2018-08-16T12:57:05.599Z,28.30
2018-08-16T12:59:33.455Z,28.40
2018-08-16T13:02:01.811Z,28.50
2018-08-16T13:04:29.471Z,28.40
2018-08-16T13:06:57.039Z,28.50
2018-08-16T13:09:24.600Z,28.50
2018-08-16T13:11:52.223Z,28.60
2018-08-16T13:14:20.146Z,28.50
2018-08-16T13:16:48.335Z,28.60
2018-08-16T13:19:16.506Z,28.50
2018-08-16T13:21:44.115Z,28.70
2018-08-16T13:24:12.287Z,28.60
2018-08-16T13:26:39.831Z,28.70
2018-08-16T13:29:08.497Z,28.60
2018-08-16T13:31:36.013Z,28.70
2018-08-16T13:34:03.627Z,28.60
2018-08-16T13:36:31.177Z,28.60
2018-08-16T13:38:58.705Z,28.60
2018-08-16T13:41:26.315Z,28.80
2018-08-16T13:43:53.965Z,28.80
2018-08-16T13:46:21.529Z,28.90
2018-08-16T13:48:49.209Z,29.00
2018-08-16T13:51:17.069Z,28.90
2018-08-16T13:53:44.601Z,29.00
2018-08-16T13:56:12.133Z,29.00
2018-08-16T13:58:39.661Z,29.00
2018-08-16T14:01:08.144Z,29.10
2018-08-16T14:03:35.648Z,29.10
2018-08-16T14:06:03.194Z,29.00
2018-08-16T14:08:30.888Z,29.00
2018-08-16T14:10:58.417Z,29.00
2018-08-16T14:13:26.551Z,29.60
2018-08-16T14:15:54.523Z,30.20
2018-08-16T14:18:22.064Z,30.60
2018-08-16T14:20:49.611Z,30.70
2018-08-16T14:23:17.808Z,31.30
2018-08-16T14:25:45.323Z,31.70
2018-08-16T14:28:13.456Z,31.90
2018-08-16T14:30:40.953Z,32.10
2018-08-16T14:33:08.541Z,32.50
2018-08-16T14:35:36.072Z,32.90
2018-08-16T14:38:03.584Z,32.90
2018-08-16T14:40:31.167Z,33.00
2018-08-16T14:42:58.691Z,32.80
2018-08-16T14:45:26.208Z,32.90
2018-08-16T14:47:53.803Z,32.50
2018-08-16T14:50:21.554Z,33.00
2018-08-16T14:52:49.901Z,32.80
2018-08-16T14:55:17.447Z,32.90
2018-08-16T14:57:44.969Z,33.10
2018-08-16T15:00:12.499Z,33.20
2018-08-16T15:02:40.805Z,33.20
2018-08-16T15:05:08.723Z,33.30
2018-08-16T15:07:36.211Z,33.40
2018-08-16T15:10:05.192Z,33.60
2018-08-16T15:12:33.001Z,34.10
2018-08-16T15:15:01.905Z,33.90
2018-08-16T15:17:29.439Z,33.80
2018-08-16T15:19:56.937Z,33.70
2018-08-16T15:22:24.467Z,33.90
2018-08-16T15:24:52.543Z,34.30
2018-08-16T15:27:20.024Z,34.30
2018-08-16T15:29:47.514Z,34.30
2018-08-16T15:32:15.072Z,34.50
2018-08-16T15:34:42.580Z,34.30
2018-08-16T15:37:10.167Z,34.60
2018-08-16T15:39:37.840Z,34.50
2018-08-16T15:42:05.431Z,34.70
2018-08-16T15:44:32.943Z,34.80
2018-08-16T15:47:00.631Z,35.00
2018-08-16T15:49:28.218Z,35.00
2018-08-16T15:51:56.313Z,35.30
2018-08-16T15:54:23.827Z,35.20
2018-08-16T15:56:51.679Z,35.10
2018-08-16T15:59:19.260Z,35.30
2018-08-16T16:01:47.463Z,35.30
2018-08-16T16:04:14.971Z,35.00
2018-08-16T16:06:42.526Z,35.00
2018-08-16T16:09:11.337Z,35.10
2018-08-16T16:11:39.460Z,34.90
2018-08-16T16:14:08.057Z,35.10
2018-08-16T16:16:36.754Z,35.00
2018-08-16T16:19:04.566Z,34.80
2018-08-16T16:21:32.618Z,34.90
2018-08-16T16:24:00.122Z,35.00
2018-08-16T16:26:27.770Z,35.00
2018-08-16T16:28:55.343Z,35.00
2018-08-16T16:31:22.907Z,35.10
2018-08-16T16:33:50.567Z,35.10
2018-08-16T16:36:18.351Z,35.20
2018-08-16T16:38:45.863Z,35.10
2018-08-16T16:41:13.407Z,34.00
2018-08-16T16:43:40.972Z,32.80
2018-08-16T16:46:08.763Z,31.70
2018-08-16T16:48:36.283Z,30.80
2018-08-16T16:51:04.210Z,30.20
2018-08-16T16:53:31.733Z,29.40
2018-08-16T16:55:59.330Z,29.00
2018-08-16T16:58:26.858Z,28.60
2018-08-16T17:00:54.427Z,28.20
2018-08-16T17:03:22.658Z,27.90
2018-08-16T17:05:50.246Z,27.60
2018-08-16T17:08:18.401Z,27.30
2018-08-16T17:10:46.515Z,27.10
2018-08-16T17:13:14.021Z,26.90
2018-08-16T17:15:41.914Z,26.60
2018-08-16T17:18:09.512Z,26.50
2018-08-16T17:20:37.636Z,26.30
2018-08-16T17:23:05.185Z,26.20
2018-08-16T17:25:32.672Z,26.00
2018-08-16T17:28:00.193Z,25.90
2018-08-16T17:30:28.410Z,25.70
2018-08-16T17:32:56.019Z,25.60
2018-08-16T17:35:23.662Z,25.50
2018-08-16T17:37:51.216Z,25.30
2018-08-16T17:40:18.786Z,25.30
2018-08-16T17:42:46.345Z,25.20
2018-08-16T17:45:14.039Z,25.00
2018-08-16T17:47:41.663Z,24.90
2018-08-16T17:50:09.668Z,24.80
2018-08-16T17:52:37.794Z,24.60
2018-08-16T17:55:05.368Z,24.40
2018-08-16T17:57:32.907Z,24.30
2018-08-16T18:00:00.455Z,24.20
2018-08-16T18:02:28.299Z,24.10
2018-08-16T18:04:56.379Z,24.00
2018-08-16T18:07:24.601Z,23.80
2018-08-16T18:09:52.108Z,23.70
2018-08-16T18:12:20.936Z,23.60
2018-08-16T18:14:49.353Z,23.50
2018-08-16T18:17:17.189Z,23.30
2018-08-16T18:19:44.817Z,23.10
2018-08-16T18:22:12.393Z,23.00
2018-08-16T18:24:39.917Z,22.90
2018-08-16T18:27:08.088Z,22.70
2018-08-16T18:29:36.139Z,22.60
2018-08-16T18:32:03.794Z,22.50
2018-08-16T18:34:31.325Z,22.40
2018-08-16T18:36:58.965Z,22.30
2018-08-16T18:39:26.471Z,22.20
2018-08-16T18:41:54.271Z,22.00
2018-08-16T18:44:21.752Z,21.90
2018-08-16T18:46:49.274Z,21.80
2018-08-16T18:49:16.840Z,21.70
2018-08-16T18:51:44.895Z,21.60
2018-08-16T18:54:12.432Z,21.50
2018-08-16T18:56:40.914Z,21.30
2018-08-16T18:59:08.410Z,21.20
2018-08-16T19:01:37.071Z,21.20
2018-08-16T19:04:05.555Z,21.10
2018-08-16T19:06:33.067Z,21.00
2018-08-16T19:09:01.248Z,21.00
2018-08-16T19:11:28.791Z,20.80
2018-08-16T19:13:56.961Z,20.80
2018-08-16T19:16:24.824Z,20.70
2018-08-16T19:18:52.323Z,20.60
2018-08-16T19:21:19.840Z,20.40
2018-08-16T19:23:47.427Z,20.40
2018-08-16T19:26:14.951Z,20.40
2018-08-16T19:28:42.547Z,20.20
2018-08-16T19:31:10.098Z,20.20
2018-08-16T19:33:37.686Z,20.00
2018-08-16T19:36:05.314Z,20.00
2018-08-16T19:38:33.282Z,19.90
2018-08-16T19:41:01.252Z,19.90
2018-08-16T19:43:28.756Z,19.90
2018-08-16T19:45:56.338Z,19.80
2018-08-16T19:48:23.967Z,19.80
2018-08-16T19:50:51.937Z,19.70
2018-08-16T19:53:19.449Z,19.70
2018-08-16T19:55:46.982Z,19.60
2018-08-16T19:58:14.582Z,19.60
2018-08-16T20:00:42.095Z,19.50
2018-08-16T20:03:10.055Z,19.30
2018-08-16T20:05:37.578Z,19.30
2018-08-16T20:08:05.108Z,19.30
2018-08-16T20:10:32.644Z,19.30
2018-08-16T20:13:00.597Z,19.30
2018-08-16T20:15:28.455Z,19.20
2018-08-16T20:17:56.018Z,19.10
2018-08-16T20:20:23.504Z,19.10
2018-08-16T20:22:51.048Z,19.10
2018-08-16T20:25:18.613Z,19.00
2018-08-16T20:27:46.259Z,19.00
2018-08-16T20:30:13.849Z,18.90
2018-08-16T20:32:41.377Z,18.90
2018-08-16T20:35:08.882Z,18.80
2018-08-16T20:37:36.620Z,18.80
2018-08-16T20:40:05.866Z,18.80
2018-08-16T20:42:33.417Z,18.80
2018-08-16T20:45:00.983Z,18.60
2018-08-16T20:47:28.538Z,18.60
2018-08-16T20:49:56.050Z,18.60
2018-08-16T20:52:24.010Z,18.60
2018-08-16T20:54:51.577Z,18.60
2018-08-16T20:57:19.146Z,18.60
2018-08-16T20:59:47.038Z,18.50
2018-08-16T21:02:15.523Z,18.40
2018-08-16T21:04:43.016Z,18.30
2018-08-16T21:07:10.672Z,18.30
2018-08-16T21:09:38.714Z,18.20
2018-08-16T21:12:06.293Z,18.00
2018-08-16T21:14:35.063Z,18.00
2018-08-16T21:17:02.963Z,18.10
2018-08-16T21:19:30.487Z,18.00
2018-08-16T21:21:58.022Z,18.00
2018-08-16T21:24:25.607Z,18.00
2018-08-16T21:26:53.630Z,18.00
2018-08-16T21:29:21.146Z,17.90
2018-08-16T21:31:48.684Z,17.90
2018-08-16T21:34:16.306Z,17.90
2018-08-16T21:36:43.832Z,17.80
2018-08-16T21:39:12.177Z,17.80
2018-08-16T21:41:39.968Z,17.80
2018-08-16T21:44:08.125Z,17.70
2018-08-16T21:46:35.637Z,17.70
2018-08-16T21:49:03.255Z,17.70
2018-08-16T21:51:31.575Z,17.60
2018-08-16T21:53:59.105Z,17.50
2018-08-16T21:56:27.146Z,17.50
2018-08-16T21:58:54.690Z,17.50
2018-08-16T22:01:22.284Z,17.50
2018-08-16T22:03:50.214Z,17.50
2018-08-16T22:06:29.194Z,17.50
2018-08-16T22:08:57.593Z,17.50
2018-08-16T22:11:25.114Z,17.50
2018-08-16T22:13:53.241Z,17.30
2018-08-16T22:16:21.183Z,17.20
2018-08-16T22:18:48.682Z,17.20
2018-08-16T22:21:16.188Z,17.20
2018-08-16T22:23:44.561Z,17.30
2018-08-16T22:26:12.144Z,17.30
2018-08-16T22:28:39.624Z,17.20
2018-08-16T22:31:07.146Z,17.20
2018-08-16T22:33:34.631Z,17.10
2018-08-16T22:36:02.199Z,17.10
2018-08-16T22:38:29.819Z,17.00
2018-08-16T22:40:57.338Z,17.00
2018-08-16T22:43:24.835Z,17.10
2018-08-16T22:45:52.636Z,17.00
2018-08-16T22:48:21.073Z,17.00
2018-08-16T22:50:49.714Z,16.90
2018-08-16T22:53:17.260Z,17.00
2018-08-16T22:55:45.413Z,17.00
2018-08-16T22:58:12.922Z,17.00
2018-08-16T23:00:40.505Z,16.90
2018-08-16T23:03:08.973Z,16.80
2018-08-16T23:05:37.066Z,16.80
2018-08-16T23:08:04.575Z,16.70
2018-08-16T23:10:32.072Z,16.70
2018-08-16T23:12:59.695Z,16.70
2018-08-16T23:15:27.676Z,16.70
2018-08-16T23:17:55.992Z,16.80
2018-08-16T23:20:23.622Z,16.60
2018-08-16T23:22:51.135Z,16.60
2018-08-16T23:25:18.661Z,16.60
2018-08-16T23:27:46.160Z,16.50
2018-08-16T23:30:14.770Z,16.60
2018-08-16T23:32:42.456Z,16.60
2018-08-16T23:35:10.312Z,16.50
2018-08-16T23:37:38.545Z,16.50
2018-08-16T23:40:08.406Z,16.50
2018-08-16T23:42:36.032Z,16.50
2018-08-16T23:45:03.938Z,16.50
2018-08-16T23:47:31.540Z,16.50
2018-08-16T23:49:59.076Z,16.50
2018-08-16T23:52:27.530Z,16.50
2018-08-16T23:54:55.726Z,16.50
2018-08-16T23:57:23.239Z,16.40
2018-08-16T23:59:50.770Z,16.40
